createdAt,value
2018-12-21T00:00:12.057Z,10.50
2018-12-21T00:00:45.557Z,10.40
2018-12-21T00:01:19.006Z,10.50
2018-12-21T00:01:52.510Z,10.50
2018-12-21T00:02:26.002Z,10.50
2018-12-21T00:02:59.450Z,10.40
2018-12-21T00:03:33.137Z,10.40
2018-12-21T00:04:06.618Z,10.50
2018-12-21T00:04:40.048Z,10.50
2018-12-21T00:05:13.819Z,10.50
2018-12-21T00:05:47.229Z,10.50
2018-12-21T00:06:20.676Z,10.50
2018-12-21T00:06:54.086Z,10.50
2018-12-21T00:07:28.182Z,10.50
2018-12-21T00:08:01.646Z,10.50
2018-12-21T00:08:35.333Z,10.50
2018-12-21T00:09:08.787Z,10.50
2018-12-21T00:09:42.187Z,10.50
2018-12-21T00:10:15.616Z,10.50
2018-12-21T00:10:49.110Z,10.50
2018-12-21T00:11:22.523Z,10.50
2018-12-21T00:11:55.942Z,10.50
2018-12-21T00:12:29.444Z,10.50
2018-12-21T00:13:02.893Z,10.50
2018-12-21T00:13:36.540Z,10.50
2018-12-21T00:14:09.969Z,10.50
2018-12-21T00:14:43.522Z,10.50
2018-12-21T00:15:17.190Z,10.50
2018-12-21T00:15:50.594Z,10.50
2018-12-21T00:16:24.596Z,10.50
2018-12-21T00:16:59.022Z,10.60
2018-12-21T00:17:34.683Z,10.60
2018-12-21T00:18:08.706Z,10.50
2018-12-21T00:18:42.130Z,10.50
2018-12-21T00:19:16.262Z,10.50
2018-12-21T00:19:49.726Z,10.50
2018-12-21T00:20:23.645Z,10.50
2018-12-21T00:20:57.746Z,10.50
2018-12-21T00:21:31.252Z,10.50
2018-12-21T00:22:04.887Z,10.50
2018-12-21T00:22:38.652Z,10.50
2018-12-21T00:23:12.546Z,10.50
2018-12-21T00:23:46.013Z,10.50
2018-12-21T00:24:19.429Z,10.50
2018-12-21T00:24:52.910Z,10.50
2018-12-21T00:25:26.328Z,10.50
2018-12-21T00:26:00.129Z,10.50
2018-12-21T00:26:33.595Z,10.50
2018-12-21T00:27:07.042Z,10.40
2018-12-21T00:27:40.495Z,10.50
2018-12-21T00:28:14.764Z,10.40
2018-12-21T00:28:49.083Z,10.50
2018-12-21T00:29:22.540Z,10.50
2018-12-21T00:29:56.773Z,10.40
2018-12-21T00:30:30.261Z,10.50
2018-12-21T00:31:08.963Z,10.40
2018-12-21T00:31:47.569Z,10.40
2018-12-21T00:32:26.417Z,10.40
2018-12-21T00:33:05.109Z,10.50
2018-12-21T00:33:44.056Z,10.50
2018-12-21T00:34:22.938Z,10.40
2018-12-21T00:35:01.643Z,10.40
2018-12-21T00:35:40.434Z,10.40
2018-12-21T00:36:19.126Z,10.40
2018-12-21T00:36:57.991Z,10.40
2018-12-21T00:37:37.398Z,10.40
2018-12-21T00:38:16.322Z,10.40
2018-12-21T00:38:55.174Z,10.40
2018-12-21T00:39:34.758Z,10.40
2018-12-21T00:40:13.756Z,10.40
2018-12-21T00:40:52.652Z,10.40
2018-12-21T00:41:25.336Z,10.40
2018-12-21T00:41:58.140Z,10.40
2018-12-21T00:42:37.400Z,10.40
2018-12-21T00:43:18.105Z,10.40
2018-12-21T00:44:00.907Z,10.40
2018-12-21T00:44:38.542Z,10.40
2018-12-21T00:45:16.013Z,10.40
2018-12-21T00:45:55.286Z,10.40
2018-12-21T00:46:33.838Z,10.40
2018-12-21T00:47:08.926Z,10.40
2018-12-21T00:47:42.446Z,10.40
2018-12-21T00:48:16.506Z,10.40
2018-12-21T00:48:50.492Z,10.40
2018-12-21T00:49:25.987Z,10.40
2018-12-21T00:49:59.459Z,10.40
2018-12-21T00:50:33.001Z,10.50
2018-12-21T00:51:06.799Z,10.40
2018-12-21T00:51:40.310Z,10.40
2018-12-21T00:52:14.908Z,10.50
2018-12-21T00:52:48.338Z,10.50
2018-12-21T00:53:21.872Z,10.50
2018-12-21T00:53:55.363Z,10.50
2018-12-21T00:54:28.971Z,10.50
2018-12-21T00:55:02.858Z,10.60
2018-12-21T00:55:36.302Z,10.50
2018-12-21T00:56:09.892Z,10.60
2018-12-21T00:56:43.749Z,10.60
2018-12-21T00:57:17.402Z,10.60
2018-12-21T00:57:51.816Z,10.60
2018-12-21T00:58:25.241Z,10.60
2018-12-21T00:58:58.685Z,10.60
2018-12-21T00:59:33.851Z,10.60
2018-12-21T01:00:08.788Z,10.60
2018-12-21T01:00:42.432Z,10.60
2018-12-21T01:01:15.943Z,10.60
2018-12-21T01:01:49.428Z,10.60
2018-12-21T01:02:22.898Z,10.60
2018-12-21T01:02:56.326Z,10.60
2018-12-21T01:03:29.760Z,10.60
2018-12-21T01:04:03.404Z,10.60
2018-12-21T01:04:37.648Z,10.60
2018-12-21T01:05:11.103Z,10.60
2018-12-21T01:05:44.638Z,10.60
2018-12-21T01:06:18.298Z,10.60
2018-12-21T01:06:51.904Z,10.60
2018-12-21T01:07:25.542Z,10.60
2018-12-21T01:07:59.050Z,10.60
2018-12-21T01:08:32.667Z,10.60
2018-12-21T01:09:06.482Z,10.60
2018-12-21T01:09:40.712Z,10.60
2018-12-21T01:10:15.061Z,10.60
2018-12-21T01:10:48.622Z,10.60
2018-12-21T01:11:22.354Z,10.60
2018-12-21T01:11:56.118Z,10.60
2018-12-21T01:12:29.592Z,10.60
2018-12-21T01:13:03.079Z,10.60
2018-12-21T01:13:38.784Z,10.60
2018-12-21T01:14:12.472Z,10.60
2018-12-21T01:14:45.909Z,10.60
2018-12-21T01:15:19.599Z,10.60
2018-12-21T01:15:53.389Z,10.60
2018-12-21T01:16:27.118Z,10.60
2018-12-21T01:17:00.618Z,10.60
2018-12-21T01:17:34.640Z,10.60
2018-12-21T01:18:08.072Z,10.60
2018-12-21T01:18:42.560Z,10.60
2018-12-21T01:19:16.080Z,10.60
2018-12-21T01:19:49.486Z,10.60
2018-12-21T01:20:22.991Z,10.60
2018-12-21T01:20:56.653Z,10.60
2018-12-21T01:21:38.747Z,10.60
2018-12-21T01:22:09.101Z,10.60
2018-12-21T01:22:42.613Z,10.60
2018-12-21T01:23:16.232Z,10.60
2018-12-21T01:23:49.710Z,10.60
2018-12-21T01:24:23.814Z,10.60
2018-12-21T01:24:57.212Z,10.60
2018-12-21T01:25:30.819Z,10.60
2018-12-21T01:26:04.318Z,10.60
2018-12-21T01:26:37.826Z,10.60
2018-12-21T01:27:11.362Z,10.60
2018-12-21T01:27:44.878Z,10.60
2018-12-21T01:28:18.526Z,10.60
2018-12-21T01:28:52.506Z,10.60
2018-12-21T01:29:25.945Z,10.60
2018-12-21T01:29:59.463Z,10.60
2018-12-21T01:30:32.958Z,10.60
2018-12-21T01:31:07.273Z,10.60
2018-12-21T01:31:40.748Z,10.60
2018-12-21T01:32:14.318Z,10.60
2018-12-21T01:32:47.757Z,10.60
2018-12-21T01:33:21.177Z,10.60
2018-12-21T01:33:54.606Z,10.70
2018-12-21T01:34:28.142Z,10.60
2018-12-21T01:35:02.239Z,10.70
2018-12-21T01:35:35.686Z,10.70
2018-12-21T01:36:09.137Z,10.70
2018-12-21T01:36:43.368Z,10.70
2018-12-21T01:37:16.970Z,10.60
2018-12-21T01:37:53.697Z,10.60
2018-12-21T01:38:27.113Z,10.60
2018-12-21T01:39:01.159Z,10.70
2018-12-21T01:39:34.874Z,10.70
2018-12-21T01:40:08.854Z,10.70
2018-12-21T01:40:42.545Z,10.70
2018-12-21T01:41:16.023Z,10.60
2018-12-21T01:41:49.502Z,10.70
2018-12-21T01:42:22.958Z,10.60
2018-12-21T01:42:56.421Z,10.70
2018-12-21T01:43:29.989Z,10.70
2018-12-21T01:44:03.754Z,10.70
2018-12-21T01:44:37.918Z,10.70
2018-12-21T01:45:11.394Z,10.70
2018-12-21T01:45:44.973Z,10.70
2018-12-21T01:46:18.563Z,10.70
2018-12-21T01:46:52.077Z,10.70
2018-12-21T01:47:25.679Z,10.70
2018-12-21T01:47:59.176Z,10.70
2018-12-21T01:48:32.621Z,10.70
2018-12-21T01:49:06.815Z,10.70
2018-12-21T01:49:40.481Z,10.70
2018-12-21T01:50:13.940Z,10.70
2018-12-21T01:50:47.419Z,10.60
2018-12-21T01:51:21.509Z,10.60
2018-12-21T01:51:54.988Z,10.70
2018-12-21T01:52:28.459Z,10.60
2018-12-21T01:53:01.930Z,10.70
2018-12-21T01:53:35.387Z,10.70
2018-12-21T01:54:09.466Z,10.70
2018-12-21T01:54:42.939Z,10.70
2018-12-21T01:55:17.202Z,10.70
2018-12-21T01:55:51.640Z,10.70
2018-12-21T01:56:25.051Z,10.70
2018-12-21T01:56:58.498Z,10.70
2018-12-21T01:57:32.007Z,10.70
2018-12-21T01:58:06.006Z,10.70
2018-12-21T01:58:39.503Z,10.70
2018-12-21T01:59:13.278Z,10.70
2018-12-21T01:59:47.618Z,10.70
2018-12-21T02:00:21.509Z,10.70
2018-12-21T02:00:55.015Z,10.70
2018-12-21T02:01:28.671Z,10.70
2018-12-21T02:02:02.136Z,10.70
2018-12-21T02:02:35.646Z,10.70
2018-12-21T02:03:09.084Z,10.70
2018-12-21T02:03:42.657Z,10.70
2018-12-21T02:04:16.116Z,10.70
2018-12-21T02:04:49.580Z,10.70
2018-12-21T02:05:23.558Z,10.70
2018-12-21T02:05:57.097Z,10.70
2018-12-21T02:06:30.579Z,10.70
2018-12-21T02:07:04.102Z,10.70
2018-12-21T02:07:38.437Z,10.70
2018-12-21T02:08:11.828Z,10.70
2018-12-21T02:08:45.234Z,10.70
2018-12-21T02:09:19.160Z,10.70
2018-12-21T02:09:53.234Z,10.70
2018-12-21T02:10:27.445Z,10.70
2018-12-21T02:11:01.217Z,10.70
2018-12-21T02:11:34.645Z,10.70
2018-12-21T02:12:08.972Z,10.70
2018-12-21T02:12:43.254Z,10.70
2018-12-21T02:13:17.915Z,10.70
2018-12-21T02:13:51.315Z,10.70
2018-12-21T02:14:24.754Z,10.70
2018-12-21T02:14:58.404Z,10.70
2018-12-21T02:15:31.883Z,10.70
2018-12-21T02:16:05.356Z,10.70
2018-12-21T02:16:38.926Z,10.70
2018-12-21T02:17:12.374Z,10.70
2018-12-21T02:17:45.823Z,10.60
2018-12-21T02:18:19.662Z,10.70
2018-12-21T02:18:53.098Z,10.70
2018-12-21T02:19:26.570Z,10.70
2018-12-21T02:20:00.084Z,10.60
2018-12-21T02:20:33.514Z,10.60
2018-12-21T02:21:07.091Z,10.60
2018-12-21T02:21:41.463Z,10.60
2018-12-21T02:22:14.909Z,10.60
2018-12-21T02:22:48.368Z,10.60
2018-12-21T02:23:22.446Z,10.60
2018-12-21T02:23:55.866Z,10.60
2018-12-21T02:24:29.515Z,10.60
2018-12-21T02:25:03.315Z,10.60
2018-12-21T02:25:36.813Z,10.60
2018-12-21T02:26:10.971Z,10.60
2018-12-21T02:26:46.772Z,10.60
2018-12-21T02:27:20.394Z,10.60
2018-12-21T02:27:53.927Z,10.60
2018-12-21T02:28:28.082Z,10.60
2018-12-21T02:29:05.097Z,10.60
2018-12-21T02:29:42.028Z,10.60
2018-12-21T02:30:17.923Z,10.60
2018-12-21T02:30:52.105Z,10.60
2018-12-21T02:31:25.554Z,10.60
2018-12-21T02:31:59.887Z,10.60
2018-12-21T02:32:34.592Z,10.60
2018-12-21T02:33:08.039Z,10.60
2018-12-21T02:33:41.614Z,10.60
2018-12-21T02:34:15.052Z,10.60
2018-12-21T02:34:48.493Z,10.60
2018-12-21T02:35:21.902Z,10.50
2018-12-21T02:35:55.427Z,10.60
2018-12-21T02:36:28.907Z,10.60
2018-12-21T02:37:02.368Z,10.50
2018-12-21T02:37:36.137Z,10.60
2018-12-21T02:38:09.646Z,10.60
2018-12-21T02:38:43.164Z,10.60
2018-12-21T02:39:16.602Z,10.60
2018-12-21T02:39:51.065Z,10.60
2018-12-21T02:40:24.958Z,10.50
2018-12-21T02:40:58.462Z,10.60
2018-12-21T02:41:34.088Z,10.50
2018-12-21T02:42:07.582Z,10.50
2018-12-21T02:42:41.091Z,10.50
2018-12-21T02:43:14.691Z,10.60
2018-12-21T02:43:48.109Z,10.60
2018-12-21T02:44:21.857Z,10.50
2018-12-21T02:44:55.769Z,10.50
2018-12-21T02:45:29.379Z,10.50
2018-12-21T02:46:02.810Z,10.60
2018-12-21T02:46:36.273Z,10.50
2018-12-21T02:47:09.753Z,10.50
2018-12-21T02:47:43.642Z,10.60
2018-12-21T02:48:17.051Z,10.50
2018-12-21T02:48:50.539Z,10.60
2018-12-21T02:49:24.052Z,10.50
2018-12-21T02:49:57.490Z,10.50
2018-12-21T02:50:31.126Z,10.50
2018-12-21T02:51:05.361Z,10.60
2018-12-21T02:51:38.880Z,10.50
2018-12-21T02:52:12.606Z,10.60
2018-12-21T02:52:46.039Z,10.60
2018-12-21T02:53:20.129Z,10.50
2018-12-21T02:53:54.015Z,10.60
2018-12-21T02:54:28.070Z,10.60
2018-12-21T02:55:01.481Z,10.50
2018-12-21T02:55:34.929Z,10.50
2018-12-21T02:56:08.403Z,10.60
2018-12-21T02:56:41.847Z,10.60
2018-12-21T02:57:15.896Z,10.60
2018-12-21T02:57:49.311Z,10.60
2018-12-21T02:58:22.795Z,10.60
2018-12-21T02:58:56.261Z,10.60
2018-12-21T02:59:29.831Z,10.60
2018-12-21T03:00:04.311Z,10.60
2018-12-21T03:00:37.778Z,10.60
2018-12-21T03:01:11.285Z,10.60
2018-12-21T03:01:51.374Z,10.60
2018-12-21T03:02:25.412Z,10.60
2018-12-21T03:02:59.072Z,10.60
2018-12-21T03:03:33.048Z,10.60
2018-12-21T03:04:06.531Z,10.60
2018-12-21T03:04:40.042Z,10.60
2018-12-21T03:05:13.642Z,10.50
2018-12-21T03:05:47.180Z,10.60
2018-12-21T03:06:21.251Z,10.60
2018-12-21T03:06:54.652Z,10.60
2018-12-21T03:07:28.082Z,10.60
2018-12-21T03:08:01.670Z,10.60
2018-12-21T03:08:41.821Z,10.60
2018-12-21T03:09:15.274Z,10.60
2018-12-21T03:09:48.761Z,10.60
2018-12-21T03:10:22.207Z,10.60
2018-12-21T03:10:55.688Z,10.60
2018-12-21T03:11:29.130Z,10.60
2018-12-21T03:12:02.732Z,10.60
2018-12-21T03:12:36.259Z,10.60
2018-12-21T03:13:09.751Z,10.60
2018-12-21T03:13:43.186Z,10.60
2018-12-21T03:14:17.244Z,10.60
2018-12-21T03:14:50.645Z,10.60
2018-12-21T03:15:24.113Z,10.60
2018-12-21T03:15:57.581Z,10.60
2018-12-21T03:16:31.056Z,10.60
2018-12-21T03:17:04.506Z,10.60
2018-12-21T03:17:38.003Z,10.60
2018-12-21T03:18:12.419Z,10.60
2018-12-21T03:18:45.905Z,10.60
2018-12-21T03:19:19.485Z,10.70
2018-12-21T03:19:53.116Z,10.60
2018-12-21T03:20:26.536Z,10.70
2018-12-21T03:21:00.022Z,10.60
2018-12-21T03:21:33.505Z,10.60
2018-12-21T03:22:14.651Z,10.70
2018-12-21T03:22:42.656Z,10.60
2018-12-21T03:23:16.135Z,10.60
2018-12-21T03:23:49.973Z,10.60
2018-12-21T03:24:23.473Z,10.60
2018-12-21T03:24:56.896Z,10.60
2018-12-21T03:25:30.488Z,10.60
2018-12-21T03:26:03.961Z,10.60
2018-12-21T03:26:37.747Z,10.60
2018-12-21T03:27:11.253Z,10.60
2018-12-21T03:27:45.971Z,10.60
2018-12-21T03:28:19.510Z,10.60
2018-12-21T03:28:52.943Z,10.60
2018-12-21T03:29:26.516Z,10.60
2018-12-21T03:30:00.203Z,10.60
2018-12-21T03:30:33.675Z,10.60
2018-12-21T03:31:07.150Z,10.60
2018-12-21T03:31:40.558Z,10.60
2018-12-21T03:32:14.025Z,10.60
2018-12-21T03:32:47.541Z,10.60
2018-12-21T03:33:21.657Z,10.60
2018-12-21T03:33:55.070Z,10.60
2018-12-21T03:34:28.542Z,10.60
2018-12-21T03:35:03.180Z,10.60
2018-12-21T03:35:37.287Z,10.70
2018-12-21T03:36:10.730Z,10.60
2018-12-21T03:36:44.182Z,10.60
2018-12-21T03:37:17.603Z,10.60
2018-12-21T03:37:51.085Z,10.60
2018-12-21T03:38:24.514Z,10.60
2018-12-21T03:38:57.942Z,10.60
2018-12-21T03:39:31.376Z,10.60
2018-12-21T03:40:05.759Z,10.60
2018-12-21T03:40:39.829Z,10.60
2018-12-21T03:41:13.658Z,10.60
2018-12-21T03:41:47.732Z,10.60
2018-12-21T03:42:21.262Z,10.60
2018-12-21T03:42:54.821Z,10.60
2018-12-21T03:43:28.274Z,10.60
2018-12-21T03:44:02.022Z,10.60
2018-12-21T03:44:35.498Z,10.60
2018-12-21T03:45:08.968Z,10.60
2018-12-21T03:45:42.996Z,10.60
2018-12-21T03:46:16.530Z,10.60
2018-12-21T03:46:49.992Z,10.60
2018-12-21T03:47:24.028Z,10.70
2018-12-21T03:47:57.458Z,10.60
2018-12-21T03:48:31.098Z,10.60
2018-12-21T03:49:05.081Z,10.60
2018-12-21T03:49:39.095Z,10.70
2018-12-21T03:50:12.521Z,10.70
2018-12-21T03:50:45.985Z,10.60
2018-12-21T03:51:19.442Z,10.60
2018-12-21T03:51:54.138Z,10.60
2018-12-21T03:52:27.546Z,10.60
2018-12-21T03:53:01.034Z,10.60
2018-12-21T03:53:34.476Z,10.60
2018-12-21T03:54:07.931Z,10.60
2018-12-21T03:54:41.403Z,10.60
2018-12-21T03:55:14.954Z,10.60
2018-12-21T03:55:48.529Z,10.60
2018-12-21T03:56:22.172Z,10.60
2018-12-21T03:56:55.653Z,10.60
2018-12-21T03:57:29.147Z,10.60
2018-12-21T03:58:02.639Z,10.70
2018-12-21T03:58:36.545Z,10.60
2018-12-21T03:59:09.988Z,10.60
2018-12-21T03:59:43.518Z,10.70
2018-12-21T04:00:17.606Z,10.60
2018-12-21T04:00:51.030Z,10.60
2018-12-21T04:01:24.489Z,10.70
2018-12-21T04:01:57.898Z,10.70
2018-12-21T04:02:31.377Z,10.70
2018-12-21T04:03:04.924Z,10.70
2018-12-21T04:03:38.940Z,10.70
2018-12-21T04:04:12.585Z,10.70
2018-12-21T04:04:46.006Z,10.70
2018-12-21T04:05:19.428Z,10.70
2018-12-21T04:05:53.671Z,10.70
2018-12-21T04:06:27.811Z,10.70
2018-12-21T04:07:01.773Z,10.70
2018-12-21T04:07:35.223Z,10.70
2018-12-21T04:08:09.478Z,10.70
2018-12-21T04:08:42.934Z,10.70
2018-12-21T04:09:17.327Z,10.70
2018-12-21T04:09:50.781Z,10.70
2018-12-21T04:10:24.230Z,10.70
2018-12-21T04:10:57.701Z,10.80
2018-12-21T04:11:31.133Z,10.70
2018-12-21T04:12:04.622Z,10.80
2018-12-21T04:12:38.069Z,10.80
2018-12-21T04:13:11.746Z,10.80
2018-12-21T04:13:45.169Z,10.80
2018-12-21T04:14:18.732Z,10.80
2018-12-21T04:14:52.614Z,10.80
2018-12-21T04:15:26.299Z,10.80
2018-12-21T04:16:00.366Z,10.80
2018-12-21T04:16:33.840Z,10.80
2018-12-21T04:17:07.310Z,10.80
2018-12-21T04:17:40.737Z,10.80
2018-12-21T04:18:14.250Z,10.80
2018-12-21T04:18:47.763Z,10.80
2018-12-21T04:19:21.251Z,10.80
2018-12-21T04:19:54.788Z,10.80
2018-12-21T04:20:28.286Z,10.80
2018-12-21T04:21:01.715Z,10.80
2018-12-21T04:21:35.265Z,10.80
2018-12-21T04:22:09.424Z,10.80
2018-12-21T04:22:42.920Z,10.80
2018-12-21T04:23:16.401Z,10.70
2018-12-21T04:23:50.390Z,10.70
2018-12-21T04:24:24.374Z,10.70
2018-12-21T04:24:57.844Z,10.70
2018-12-21T04:25:31.303Z,10.70
2018-12-21T04:26:05.255Z,10.70
2018-12-21T04:26:38.723Z,10.70
2018-12-21T04:27:12.246Z,10.70
2018-12-21T04:27:45.710Z,10.70
2018-12-21T04:28:19.805Z,10.70
2018-12-21T04:28:53.336Z,10.70
2018-12-21T04:29:26.805Z,10.70
2018-12-21T04:30:00.267Z,10.70
2018-12-21T04:30:33.742Z,10.70
2018-12-21T04:31:07.220Z,10.70
2018-12-21T04:31:40.638Z,10.70
2018-12-21T04:32:14.905Z,10.70
2018-12-21T04:32:48.338Z,10.60
2018-12-21T04:33:21.780Z,10.70
2018-12-21T04:33:55.229Z,10.60
2018-12-21T04:34:28.703Z,10.70
2018-12-21T04:35:02.661Z,10.60
2018-12-21T04:35:36.122Z,10.70
2018-12-21T04:36:09.609Z,10.70
2018-12-21T04:36:43.118Z,10.70
2018-12-21T04:37:16.582Z,10.70
2018-12-21T04:37:52.091Z,10.60
2018-12-21T04:38:25.538Z,10.60
2018-12-21T04:38:58.958Z,10.60
2018-12-21T04:39:32.453Z,10.60
2018-12-21T04:40:06.644Z,10.60
2018-12-21T04:40:40.080Z,10.60
2018-12-21T04:41:13.529Z,10.60
2018-12-21T04:41:46.946Z,10.60
2018-12-21T04:42:20.416Z,10.60
2018-12-21T04:42:55.018Z,10.60
2018-12-21T04:43:28.508Z,10.60
2018-12-21T04:44:01.961Z,10.60
2018-12-21T04:44:36.147Z,10.60
2018-12-21T04:45:09.549Z,10.60
2018-12-21T04:45:43.002Z,10.60
2018-12-21T04:46:16.611Z,10.60
2018-12-21T04:46:50.090Z,10.60
2018-12-21T04:47:23.485Z,10.50
2018-12-21T04:47:56.933Z,10.60
2018-12-21T04:48:30.470Z,10.50
2018-12-21T04:49:04.260Z,10.50
2018-12-21T04:49:37.762Z,10.50
2018-12-21T04:50:12.385Z,10.50
2018-12-21T04:50:45.835Z,10.50
2018-12-21T04:51:19.251Z,10.50
2018-12-21T04:51:53.608Z,10.50
2018-12-21T04:52:27.130Z,10.50
2018-12-21T04:53:00.597Z,10.50
2018-12-21T04:53:34.066Z,10.50
2018-12-21T04:54:07.613Z,10.50
2018-12-21T04:54:41.964Z,10.50
2018-12-21T04:55:15.457Z,10.50
2018-12-21T04:55:48.871Z,10.50
2018-12-21T04:56:22.939Z,10.50
2018-12-21T04:56:56.890Z,10.50
2018-12-21T04:57:30.346Z,10.50
2018-12-21T04:58:03.975Z,10.50
2018-12-21T04:58:38.135Z,10.50
2018-12-21T04:59:11.594Z,10.40
2018-12-21T04:59:45.120Z,10.50
2018-12-21T05:00:18.603Z,10.50
2018-12-21T05:00:52.052Z,10.50
2018-12-21T05:01:25.517Z,10.40
2018-12-21T05:01:58.974Z,10.50
2018-12-21T05:02:32.531Z,10.40
2018-12-21T05:03:05.971Z,10.50
2018-12-21T05:03:40.037Z,10.40
2018-12-21T05:04:19.657Z,10.40
2018-12-21T05:04:49.091Z,10.40
2018-12-21T05:05:22.560Z,10.40
2018-12-21T05:05:56.321Z,10.40
2018-12-21T05:06:31.611Z,10.40
2018-12-21T05:07:12.211Z,10.40
2018-12-21T05:07:41.125Z,10.40
2018-12-21T05:08:15.101Z,10.40
2018-12-21T05:08:48.600Z,10.40
2018-12-21T05:09:22.013Z,10.40
2018-12-21T05:09:55.595Z,10.40
2018-12-21T05:10:30.483Z,10.40
2018-12-21T05:11:04.349Z,10.40
2018-12-21T05:11:38.018Z,10.40
2018-12-21T05:12:11.673Z,10.40
2018-12-21T05:12:45.167Z,10.40
2018-12-21T05:13:18.620Z,10.40
2018-12-21T05:13:52.025Z,10.40
2018-12-21T05:14:26.225Z,10.40
2018-12-21T05:14:59.674Z,10.40
2018-12-21T05:15:33.133Z,10.40
2018-12-21T05:16:06.654Z,10.40
2018-12-21T05:16:40.265Z,10.40
2018-12-21T05:17:13.959Z,10.40
2018-12-21T05:17:47.450Z,10.30
2018-12-21T05:18:21.257Z,10.30
2018-12-21T05:18:54.711Z,10.40
2018-12-21T05:19:29.173Z,10.30
2018-12-21T05:20:02.732Z,10.30
2018-12-21T05:20:36.971Z,10.40
2018-12-21T05:21:10.396Z,10.30
2018-12-21T05:21:43.915Z,10.30
2018-12-21T05:22:17.523Z,10.30
2018-12-21T05:22:52.336Z,10.30
2018-12-21T05:23:26.415Z,10.30
2018-12-21T05:23:59.879Z,10.40
2018-12-21T05:24:33.340Z,10.30
2018-12-21T05:25:07.050Z,10.40
2018-12-21T05:25:41.026Z,10.30
2018-12-21T05:26:15.058Z,10.30
2018-12-21T05:26:48.655Z,10.30
2018-12-21T05:27:22.112Z,10.30
2018-12-21T05:27:55.952Z,10.30
2018-12-21T05:28:29.591Z,10.30
2018-12-21T05:29:03.600Z,10.30
2018-12-21T05:29:37.083Z,10.30
2018-12-21T05:30:10.898Z,10.30
2018-12-21T05:30:44.341Z,10.30
2018-12-21T05:31:17.810Z,10.30
2018-12-21T05:31:51.313Z,10.30
2018-12-21T05:32:24.751Z,10.30
2018-12-21T05:32:58.947Z,10.30
2018-12-21T05:33:32.455Z,10.30
2018-12-21T05:34:05.958Z,10.30
2018-12-21T05:34:40.222Z,10.30
2018-12-21T05:35:14.297Z,10.30
2018-12-21T05:35:47.742Z,10.30
2018-12-21T05:36:21.194Z,10.30
2018-12-21T05:36:54.652Z,10.30
2018-12-21T05:37:28.621Z,10.30
2018-12-21T05:38:02.164Z,10.30
2018-12-21T05:38:35.624Z,10.30
2018-12-21T05:39:09.059Z,10.30
2018-12-21T05:39:42.817Z,10.30
2018-12-21T05:40:16.270Z,10.30
2018-12-21T05:40:49.690Z,10.30
2018-12-21T05:41:23.352Z,10.30
2018-12-21T05:41:56.818Z,10.30
2018-12-21T05:42:30.274Z,10.30
2018-12-21T05:43:03.789Z,10.20
2018-12-21T05:43:37.290Z,10.30
2018-12-21T05:44:11.554Z,10.20
2018-12-21T05:44:45.627Z,10.20
2018-12-21T05:45:19.634Z,10.20
2018-12-21T05:45:53.301Z,10.20
2018-12-21T05:46:26.745Z,10.20
2018-12-21T05:47:00.263Z,10.20
2018-12-21T05:47:33.706Z,10.20
2018-12-21T05:48:07.100Z,10.20
2018-12-21T05:48:40.550Z,10.20
2018-12-21T05:49:14.037Z,10.20
2018-12-21T05:49:47.504Z,10.20
2018-12-21T05:50:21.786Z,10.20
2018-12-21T05:50:55.255Z,10.20
2018-12-21T05:51:29.306Z,10.20
2018-12-21T05:52:02.800Z,10.20
2018-12-21T05:52:36.265Z,10.20
2018-12-21T05:53:09.833Z,10.20
2018-12-21T05:53:43.956Z,10.20
2018-12-21T05:54:18.331Z,10.20
2018-12-21T05:54:51.794Z,10.20
2018-12-21T05:55:25.724Z,10.20
2018-12-21T05:55:59.206Z,10.20
2018-12-21T05:56:32.684Z,10.20
2018-12-21T05:57:06.173Z,10.20
2018-12-21T05:57:39.638Z,10.20
2018-12-21T05:58:13.081Z,10.10
2018-12-21T05:58:46.504Z,10.20
2018-12-21T05:59:20.022Z,10.20
2018-12-21T05:59:53.429Z,10.20
2018-12-21T06:00:26.903Z,10.10
2018-12-21T06:01:01.052Z,10.10
2018-12-21T06:01:34.639Z,10.10
2018-12-21T06:02:09.074Z,10.10
2018-12-21T06:02:42.570Z,10.10
2018-12-21T06:03:16.026Z,10.10
2018-12-21T06:03:49.474Z,10.10
2018-12-21T06:04:22.896Z,10.10
2018-12-21T06:04:56.369Z,10.10
2018-12-21T06:05:29.839Z,10.10
2018-12-21T06:06:03.324Z,10.10
2018-12-21T06:06:37.693Z,10.10
2018-12-21T06:07:11.127Z,10.10
2018-12-21T06:07:44.837Z,10.10
2018-12-21T06:08:18.586Z,10.10
2018-12-21T06:08:52.054Z,10.10
2018-12-21T06:09:25.503Z,10.00
2018-12-21T06:09:58.897Z,10.00
2018-12-21T06:10:32.336Z,10.00
2018-12-21T06:11:05.826Z,10.00
2018-12-21T06:11:39.229Z,10.00
2018-12-21T06:12:12.712Z,10.00
2018-12-21T06:12:46.190Z,10.10
2018-12-21T06:13:20.010Z,10.10
2018-12-21T06:13:53.473Z,10.10
2018-12-21T06:14:26.890Z,10.10
2018-12-21T06:15:00.452Z,10.10
2018-12-21T06:15:33.927Z,10.10
2018-12-21T06:16:07.842Z,10.10
2018-12-21T06:16:41.297Z,10.10
2018-12-21T06:17:14.941Z,10.10
2018-12-21T06:17:48.402Z,10.10
2018-12-21T06:18:21.858Z,10.10
2018-12-21T06:18:55.300Z,10.10
2018-12-21T06:19:28.754Z,10.10
2018-12-21T06:20:02.268Z,10.10
2018-12-21T06:20:35.705Z,10.10
2018-12-21T06:21:09.161Z,10.10
2018-12-21T06:21:42.572Z,10.10
2018-12-21T06:22:16.922Z,10.10
2018-12-21T06:22:50.397Z,10.10
2018-12-21T06:23:24.167Z,10.10
2018-12-21T06:23:57.661Z,10.10
2018-12-21T06:24:31.761Z,10.10
2018-12-21T06:25:05.964Z,10.10
2018-12-21T06:25:39.522Z,10.20
2018-12-21T06:26:12.974Z,10.10
2018-12-21T06:26:47.237Z,10.10
2018-12-21T06:27:20.713Z,10.10
2018-12-21T06:27:54.204Z,10.20
2018-12-21T06:28:27.595Z,10.10
2018-12-21T06:29:01.261Z,10.20
2018-12-21T06:29:34.679Z,10.20
2018-12-21T06:30:08.581Z,10.10
2018-12-21T06:30:42.330Z,10.10
2018-12-21T06:31:15.772Z,10.20
2018-12-21T06:31:49.242Z,10.20
2018-12-21T06:32:22.710Z,10.20
2018-12-21T06:32:56.098Z,10.20
2018-12-21T06:33:30.682Z,10.20
2018-12-21T06:34:04.430Z,10.20
2018-12-21T06:34:38.826Z,10.20
2018-12-21T06:35:12.330Z,10.20
2018-12-21T06:35:45.870Z,10.20
2018-12-21T06:36:19.274Z,10.20
2018-12-21T06:36:53.329Z,10.20
2018-12-21T06:37:27.685Z,10.20
2018-12-21T06:38:01.146Z,10.20
2018-12-21T06:38:34.598Z,10.20
2018-12-21T06:39:08.346Z,10.20
2018-12-21T06:39:41.883Z,10.20
2018-12-21T06:40:15.504Z,10.20
2018-12-21T06:40:48.977Z,10.20
2018-12-21T06:41:22.535Z,10.20
2018-12-21T06:41:56.005Z,10.20
2018-12-21T06:42:30.009Z,10.20
2018-12-21T06:43:04.023Z,10.20
2018-12-21T06:43:37.697Z,10.20
2018-12-21T06:44:11.112Z,10.20
2018-12-21T06:44:44.663Z,10.20
2018-12-21T06:45:18.068Z,10.20
2018-12-21T06:45:51.659Z,10.20
2018-12-21T06:46:25.082Z,10.20
2018-12-21T06:46:58.581Z,10.20
2018-12-21T06:47:32.145Z,10.20
2018-12-21T06:48:05.654Z,10.20
2018-12-21T06:48:39.388Z,10.20
2018-12-21T06:49:12.862Z,10.20
2018-12-21T06:49:46.314Z,10.20
2018-12-21T06:50:19.766Z,10.20
2018-12-21T06:50:53.341Z,10.20
2018-12-21T06:51:26.802Z,10.20
2018-12-21T06:52:00.223Z,10.20
2018-12-21T06:52:33.645Z,10.20
2018-12-21T06:53:07.085Z,10.20
2018-12-21T06:53:41.002Z,10.20
2018-12-21T06:54:14.534Z,10.20
2018-12-21T06:54:48.001Z,10.30
2018-12-21T06:55:21.461Z,10.20
2018-12-21T06:55:54.909Z,10.20
2018-12-21T06:56:28.416Z,10.30
2018-12-21T06:57:01.875Z,10.30
2018-12-21T06:57:35.354Z,10.30
2018-12-21T06:58:09.569Z,10.30
2018-12-21T06:58:43.723Z,10.30
2018-12-21T06:59:17.131Z,10.30
2018-12-21T06:59:50.578Z,10.30
2018-12-21T07:00:24.000Z,10.30
2018-12-21T07:00:57.471Z,10.30
2018-12-21T07:01:30.992Z,10.30
2018-12-21T07:02:05.826Z,10.30
2018-12-21T07:02:39.313Z,10.30
2018-12-21T07:03:17.078Z,10.30
2018-12-21T07:03:48.934Z,10.30
2018-12-21T07:04:22.381Z,10.30
2018-12-21T07:04:55.777Z,10.30
2018-12-21T07:05:29.973Z,10.30
2018-12-21T07:06:03.543Z,10.30
2018-12-21T07:06:37.686Z,10.30
2018-12-21T07:07:11.149Z,10.30
2018-12-21T07:07:44.709Z,10.30
2018-12-21T07:08:18.109Z,10.30
2018-12-21T07:08:52.199Z,10.30
2018-12-21T07:09:25.715Z,10.30
2018-12-21T07:09:59.219Z,10.30
2018-12-21T07:10:32.694Z,10.30
2018-12-21T07:11:06.148Z,10.30
2018-12-21T07:11:39.578Z,10.30
2018-12-21T07:12:13.036Z,10.30
2018-12-21T07:12:47.007Z,10.30
2018-12-21T07:13:20.728Z,10.30
2018-12-21T07:13:54.169Z,10.30
2018-12-21T07:14:27.601Z,10.30
2018-12-21T07:15:01.048Z,10.40
2018-12-21T07:15:35.274Z,10.30
2018-12-21T07:16:08.752Z,10.40